AVA140 SCIP-SCCI
Flight info
| Callsign | AVA140 |
|---|---|
| Flight time | 5h 8m |
| Altitude | 35000 |
| Route | ASALA2J ASALA DCT 35S100W 43S090W/N0430F370 49S080W DCT NEDAX NEDAX3E |
| Aircraft | A320/M-SDE3FGHIRWY/LB1 |
Departure
| Time | 2026-04-22 16:00 |
|---|---|
| Airport | Mataveri International Airport (SCIP) |
Arrival
| Time | 2026-04-22 21:08 |
|---|---|
| Airport | President Carlos Ibáñez International Airport (SCCI) |
| Time | Latitude | Longitude | Altitude | Speed | Heading |
|---|---|---|---|---|---|
| 2026-04-22 15:57 | -27.16084 | -109.42860 | 154 ft | 0 kts | 27° |
| 2026-04-22 15:57 | -27.16079 | -109.42858 | 153 ft | 4 kts | 21° |
| 2026-04-22 15:57 | -27.16040 | -109.42872 | 151 ft | 2 kts | 319° |
| 2026-04-22 15:57 | -27.16035 | -109.42885 | 151 ft | 1 kts | 294° |
| 2026-04-22 15:58 | -27.16014 | -109.42945 | 151 ft | 17 kts | 284° |
| 2026-04-22 15:58 | -27.16066 | -109.43013 | 157 ft | 9 kts | 211° |
| 2026-04-22 15:58 | -27.16072 | -109.43075 | 157 ft | 15 kts | 291° |
| 2026-04-22 15:58 | -27.16003 | -109.43224 | 160 ft | 24 kts | 298° |
| 2026-04-22 15:59 | -27.15928 | -109.43393 | 158 ft | 25 kts | 294° |
| 2026-04-22 15:59 | -27.15843 | -109.43550 | 154 ft | 20 kts | 324° |
| 2026-04-22 15:59 | -27.15790 | -109.43643 | 154 ft | 14 kts | 214° |
| 2026-04-22 15:59 | -27.15843 | -109.43581 | 154 ft | 13 kts | 117° |
| 2026-04-22 16:00 | -27.15963 | -109.43319 | 156 ft | 73 kts | 117° |
| 2026-04-22 16:00 | -27.16285 | -109.42614 | 157 ft | 131 kts | 117° |
| 2026-04-22 16:00 | -27.16777 | -109.41540 | 214 ft | 172 kts | 117° |
| 2026-04-22 16:00 | -27.17316 | -109.40377 | 854 ft | 166 kts | 111° |
| 2026-04-22 16:01 | -27.17847 | -109.39206 | 1468 ft | 169 kts | 115° |
| 2026-04-22 16:01 | -27.18385 | -109.38014 | 2019 ft | 177 kts | 114° |
| 2026-04-22 16:01 | -27.18977 | -109.36714 | 2246 ft | 197 kts | 113° |
| 2026-04-22 16:01 | -27.19626 | -109.35266 | 2417 ft | 219 kts | 114° |
| 2026-04-22 16:02 | -27.20353 | -109.33649 | 2686 ft | 244 kts | 115° |
| 2026-04-22 16:02 | -27.21143 | -109.31903 | 3272 ft | 252 kts | 114° |
| 2026-04-22 16:02 | -27.21950 | -109.30131 | 3993 ft | 258 kts | 114° |
| 2026-04-22 16:02 | -27.22775 | -109.28302 | 4643 ft | 266 kts | 115° |
| 2026-04-22 16:03 | -27.23617 | -109.26421 | 5327 ft | 272 kts | 115° |
| 2026-04-22 16:03 | -27.24471 | -109.24524 | 6190 ft | 270 kts | 115° |
| 2026-04-22 16:03 | -27.25333 | -109.22651 | 6984 ft | 271 kts | 116° |
| 2026-04-22 16:03 | -27.26209 | -109.20764 | 7681 ft | 273 kts | 117° |
| 2026-04-22 16:04 | -27.27097 | -109.18866 | 8385 ft | 276 kts | 117° |
| 2026-04-22 16:04 | -27.27996 | -109.16958 | 9112 ft | 277 kts | 118° |
| 2026-04-22 16:04 | -27.28903 | -109.15050 | 9848 ft | 277 kts | 118° |
| 2026-04-22 16:04 | -27.29815 | -109.13148 | 10543 ft | 276 kts | 120° |
| 2026-04-22 16:05 | -27.30419 | -109.11895 | 10981 ft | 275 kts | 120° |
| 2026-04-22 16:05 | -27.31727 | -109.09396 | 11576 ft | 288 kts | 127° |
| 2026-04-22 16:05 | -27.32969 | -109.07528 | 11706 ft | 309 kts | 130° |
| 2026-04-22 16:05 | -27.34326 | -109.05547 | 11836 ft | 330 kts | 128° |
| 2026-04-22 16:06 | -27.35717 | -109.03396 | 12030 ft | 348 kts | 126° |
| 2026-04-22 16:06 | -27.37084 | -109.01114 | 12528 ft | 355 kts | 124° |
| 2026-04-22 16:06 | -27.38405 | -108.98755 | 13126 ft | 358 kts | 123° |
| 2026-04-22 16:06 | -27.39701 | -108.96345 | 13740 ft | 361 kts | 123° |
| 2026-04-22 16:07 | -27.40989 | -108.93904 | 14323 ft | 364 kts | 123° |
| 2026-04-22 16:07 | -27.42282 | -108.91443 | 14851 ft | 367 kts | 123° |
| 2026-04-22 16:07 | -27.43591 | -108.88963 | 15379 ft | 370 kts | 123° |
| 2026-04-22 16:07 | -27.44919 | -108.86466 | 15900 ft | 373 kts | 122° |
| 2026-04-22 16:08 | -27.46243 | -108.83985 | 16419 ft | 376 kts | 123° |
| 2026-04-22 16:08 | -27.47595 | -108.81455 | 16940 ft | 379 kts | 123° |
| 2026-04-22 16:08 | -27.48960 | -108.78904 | 17466 ft | 382 kts | 122° |
| 2026-04-22 16:08 | -27.50338 | -108.76332 | 17989 ft | 385 kts | 123° |
| 2026-04-22 16:09 | -27.51723 | -108.73739 | 18505 ft | 388 kts | 123° |
| 2026-04-22 16:09 | -27.53116 | -108.71126 | 18945 ft | 391 kts | 122° |
| 2026-04-22 16:09 | -27.54522 | -108.68490 | 19389 ft | 394 kts | 123° |
| 2026-04-22 16:09 | -27.55938 | -108.65833 | 19829 ft | 397 kts | 123° |
| 2026-04-22 16:10 | -27.57366 | -108.63156 | 20262 ft | 400 kts | 123° |
| 2026-04-22 16:10 | -27.58802 | -108.60457 | 20701 ft | 403 kts | 122° |
| 2026-04-22 16:10 | -27.59779 | -108.58621 | 20998 ft | 405 kts | 123° |
| 2026-04-22 16:10 | -27.61231 | -108.55886 | 21422 ft | 409 kts | 122° |
| 2026-04-22 16:11 | -27.62693 | -108.53123 | 21853 ft | 412 kts | 122° |
| 2026-04-22 16:11 | -27.64164 | -108.50342 | 22285 ft | 414 kts | 122° |
| 2026-04-22 16:11 | -27.65646 | -108.47540 | 22687 ft | 418 kts | 122° |
| 2026-04-22 16:11 | -27.67210 | -108.44768 | 23077 ft | 420 kts | 128° |
| 2026-04-22 16:12 | -27.69116 | -108.42328 | 23495 ft | 421 kts | 138° |
| 2026-04-22 16:12 | -27.71289 | -108.40098 | 23854 ft | 424 kts | 139° |
| 2026-04-22 16:12 | -27.73482 | -108.37854 | 24155 ft | 427 kts | 139° |
| 2026-04-22 16:12 | -27.75684 | -108.35589 | 24492 ft | 429 kts | 139° |
| 2026-04-22 16:13 | -27.77887 | -108.33310 | 24837 ft | 430 kts | 139° |
| 2026-04-22 16:13 | -27.80097 | -108.31017 | 25170 ft | 432 kts | 139° |
| 2026-04-22 16:13 | -27.82312 | -108.28718 | 25488 ft | 433 kts | 139° |
| 2026-04-22 16:13 | -27.84536 | -108.26407 | 25810 ft | 435 kts | 139° |
| 2026-04-22 16:14 | -27.86764 | -108.24090 | 26124 ft | 436 kts | 139° |
| 2026-04-22 16:14 | -27.89003 | -108.21765 | 26435 ft | 438 kts | 139° |
| 2026-04-22 16:14 | -27.91248 | -108.19437 | 26742 ft | 439 kts | 139° |
| 2026-04-22 16:14 | -27.93503 | -108.17098 | 27044 ft | 441 kts | 139° |
| 2026-04-22 16:15 | -27.95764 | -108.14751 | 27335 ft | 442 kts | 139° |
| 2026-04-22 16:15 | -27.98034 | -108.12395 | 27622 ft | 444 kts | 139° |
| 2026-04-22 16:15 | -28.00313 | -108.10025 | 27903 ft | 445 kts | 139° |
| 2026-04-22 16:15 | -28.02591 | -108.07647 | 28191 ft | 447 kts | 139° |
| 2026-04-22 16:16 | -28.04883 | -108.05257 | 28447 ft | 449 kts | 139° |
| 2026-04-22 16:16 | -28.07186 | -108.02861 | 28700 ft | 451 kts | 140° |
| 2026-04-22 16:16 | -28.09499 | -108.00455 | 28955 ft | 452 kts | 140° |
| 2026-04-22 16:16 | -28.11819 | -107.98039 | 29212 ft | 454 kts | 140° |
| 2026-04-22 16:17 | -28.14147 | -107.95610 | 29459 ft | 455 kts | 140° |
| 2026-04-22 16:17 | -28.16477 | -107.93175 | 29700 ft | 457 kts | 140° |
| 2026-04-22 16:17 | -28.18815 | -107.90731 | 29934 ft | 458 kts | 140° |
| 2026-04-22 16:17 | -28.21161 | -107.88279 | 30164 ft | 459 kts | 140° |
| 2026-04-22 16:18 | -28.23511 | -107.85820 | 30373 ft | 461 kts | 140° |
| 2026-04-22 16:18 | -28.25868 | -107.83350 | 30574 ft | 461 kts | 140° |
| 2026-04-22 16:18 | -28.28218 | -107.80883 | 30845 ft | 460 kts | 140° |
| 2026-04-22 16:18 | -28.30565 | -107.78419 | 31114 ft | 459 kts | 140° |
| 2026-04-22 16:19 | -28.32903 | -107.75962 | 31379 ft | 458 kts | 140° |
| 2026-04-22 16:19 | -28.35239 | -107.73510 | 31641 ft | 457 kts | 140° |
| 2026-04-22 16:19 | -28.37572 | -107.71063 | 31880 ft | 457 kts | 140° |
| 2026-04-22 16:19 | -28.39905 | -107.68613 | 32101 ft | 457 kts | 140° |
| 2026-04-22 16:20 | -28.42236 | -107.66161 | 32351 ft | 456 kts | 140° |
| 2026-04-22 16:20 | -28.44561 | -107.63711 | 32598 ft | 456 kts | 140° |
| 2026-04-22 16:20 | -28.46882 | -107.61262 | 32846 ft | 455 kts | 140° |
| 2026-04-22 16:20 | -28.49201 | -107.58819 | 33089 ft | 454 kts | 140° |
| 2026-04-22 16:21 | -28.51518 | -107.56379 | 33336 ft | 454 kts | 140° |
| 2026-04-22 16:21 | -28.53830 | -107.53941 | 33579 ft | 453 kts | 140° |
| 2026-04-22 16:21 | -28.56136 | -107.51507 | 33824 ft | 452 kts | 140° |
| 2026-04-22 16:21 | -28.58441 | -107.49072 | 34072 ft | 451 kts | 140° |
| 2026-04-22 16:22 | -28.63036 | -107.44216 | 34512 ft | 450 kts | 140° |
| 2026-04-22 16:22 | -28.65328 | -107.41795 | 34719 ft | 449 kts | 140° |
| 2026-04-22 16:22 | -28.67617 | -107.39376 | 34923 ft | 448 kts | 140° |
| 2026-04-22 16:23 | -28.72180 | -107.34534 | 35252 ft | 449 kts | 140° |
| 2026-04-22 16:23 | -28.76727 | -107.29701 | 35300 ft | 446 kts | 140° |
| 2026-04-22 16:24 | -28.83494 | -107.22504 | 35297 ft | 445 kts | 140° |
| 2026-04-22 16:25 | -28.88019 | -107.17677 | 35301 ft | 445 kts | 140° |
| 2026-04-22 16:25 | -28.94812 | -107.10440 | 35300 ft | 445 kts | 140° |
| 2026-04-22 16:26 | -28.99342 | -107.05613 | 35306 ft | 445 kts | 140° |
| 2026-04-22 16:26 | -29.03865 | -107.00774 | 35308 ft | 446 kts | 140° |
| 2026-04-22 16:27 | -29.08392 | -106.95923 | 35297 ft | 446 kts | 140° |
| 2026-04-22 16:27 | -29.12925 | -106.91062 | 35298 ft | 447 kts | 140° |
| 2026-04-22 16:28 | -29.17459 | -106.86197 | 35296 ft | 447 kts | 140° |
| 2026-04-22 16:28 | -29.21993 | -106.81322 | 35300 ft | 447 kts | 140° |
| 2026-04-22 16:29 | -29.26531 | -106.76450 | 35302 ft | 447 kts | 140° |
| 2026-04-22 16:29 | -29.31065 | -106.71567 | 35302 ft | 447 kts | 139° |
| 2026-04-22 16:30 | -29.35563 | -106.66709 | 35316 ft | 448 kts | 139° |
| 2026-04-22 16:30 | -29.40092 | -106.61807 | 35309 ft | 448 kts | 139° |
| 2026-04-22 16:31 | -29.44628 | -106.56906 | 35312 ft | 448 kts | 140° |
| 2026-04-22 16:31 | -29.49166 | -106.52004 | 35307 ft | 448 kts | 139° |
| 2026-04-22 16:32 | -29.53694 | -106.47085 | 35307 ft | 448 kts | 139° |
| 2026-04-22 16:32 | -29.58222 | -106.42159 | 35307 ft | 448 kts | 139° |
| 2026-04-22 16:33 | -29.62752 | -106.37234 | 35308 ft | 448 kts | 139° |
| 2026-04-22 16:33 | -29.67280 | -106.32306 | 35320 ft | 448 kts | 139° |
| 2026-04-22 16:34 | -29.71809 | -106.27374 | 35318 ft | 449 kts | 139° |
| 2026-04-22 16:34 | -29.76339 | -106.22429 | 35315 ft | 449 kts | 139° |
| 2026-04-22 16:35 | -29.80866 | -106.17482 | 35311 ft | 449 kts | 139° |
| 2026-04-22 16:35 | -29.85392 | -106.12525 | 35311 ft | 449 kts | 139° |
| 2026-04-22 16:36 | -29.89919 | -106.07564 | 35311 ft | 449 kts | 139° |
| 2026-04-22 16:36 | -29.94446 | -106.02602 | 35314 ft | 449 kts | 139° |
| 2026-04-22 16:37 | -29.98968 | -105.97633 | 35316 ft | 449 kts | 139° |
| 2026-04-22 16:37 | -30.03495 | -105.92657 | 35309 ft | 450 kts | 139° |
| 2026-04-22 16:38 | -30.08027 | -105.87673 | 35312 ft | 450 kts | 139° |
| 2026-04-22 16:38 | -30.12557 | -105.82666 | 35309 ft | 451 kts | 139° |
| 2026-04-22 16:39 | -30.17087 | -105.77660 | 35313 ft | 451 kts | 139° |
| 2026-04-22 16:39 | -30.21616 | -105.72645 | 35314 ft | 451 kts | 139° |
| 2026-04-22 16:40 | -30.26144 | -105.67625 | 35314 ft | 451 kts | 139° |
| 2026-04-22 16:41 | -30.32911 | -105.60116 | 35316 ft | 451 kts | 139° |
| 2026-04-22 16:41 | -30.37443 | -105.55082 | 35315 ft | 452 kts | 139° |
| 2026-04-22 16:42 | -30.41978 | -105.50040 | 35319 ft | 452 kts | 139° |
| 2026-04-22 16:42 | -30.46512 | -105.44992 | 35319 ft | 452 kts | 139° |
| 2026-04-22 16:43 | -30.51044 | -105.39935 | 35318 ft | 452 kts | 139° |
| 2026-04-22 16:43 | -30.55573 | -105.34870 | 35321 ft | 452 kts | 139° |
| 2026-04-22 16:44 | -30.60101 | -105.29807 | 35324 ft | 452 kts | 139° |
| 2026-04-22 16:44 | -30.64626 | -105.24729 | 35328 ft | 453 kts | 139° |
| 2026-04-22 16:45 | -30.69157 | -105.19643 | 35324 ft | 453 kts | 139° |
| 2026-04-22 16:45 | -30.73693 | -105.14551 | 35324 ft | 453 kts | 139° |
| 2026-04-22 16:46 | -30.78233 | -105.09453 | 35320 ft | 454 kts | 138° |
| 2026-04-22 16:46 | -30.82763 | -105.04337 | 35322 ft | 454 kts | 139° |
| 2026-04-22 16:47 | -30.87295 | -104.99224 | 35327 ft | 454 kts | 138° |
| 2026-04-22 16:47 | -30.91061 | -104.94967 | 35325 ft | 454 kts | 138° |
| 2026-04-22 16:48 | -30.96358 | -104.88976 | 35330 ft | 454 kts | 138° |
| 2026-04-22 16:48 | -31.00887 | -104.83841 | 35331 ft | 454 kts | 138° |
| 2026-04-22 16:49 | -31.05393 | -104.78737 | 35332 ft | 455 kts | 138° |
| 2026-04-22 16:49 | -31.09952 | -104.73553 | 35330 ft | 455 kts | 138° |
| 2026-04-22 16:50 | -31.14484 | -104.68401 | 35328 ft | 455 kts | 138° |
| 2026-04-22 16:50 | -31.19018 | -104.63252 | 35329 ft | 455 kts | 138° |
| 2026-04-22 16:51 | -31.23513 | -104.58120 | 35328 ft | 455 kts | 138° |
| 2026-04-22 16:51 | -31.28032 | -104.52933 | 35334 ft | 455 kts | 138° |
| 2026-04-22 16:52 | -31.32562 | -104.47751 | 35332 ft | 456 kts | 139° |
| 2026-04-22 16:52 | -31.37098 | -104.42574 | 35333 ft | 456 kts | 139° |
| 2026-04-22 16:53 | -31.41629 | -104.37377 | 35333 ft | 456 kts | 138° |
| 2026-04-22 16:53 | -31.46149 | -104.32167 | 35336 ft | 456 kts | 138° |
| 2026-04-22 16:54 | -31.50678 | -104.26958 | 35336 ft | 456 kts | 138° |
| 2026-04-22 16:54 | -31.55203 | -104.21748 | 35345 ft | 456 kts | 139° |
| 2026-04-22 16:55 | -31.59725 | -104.16522 | 35339 ft | 457 kts | 138° |
| 2026-04-22 16:55 | -31.64248 | -104.11283 | 35334 ft | 457 kts | 138° |
| 2026-04-22 16:56 | -31.68786 | -104.06048 | 35333 ft | 457 kts | 138° |
| 2026-04-22 16:56 | -31.73314 | -104.00802 | 35333 ft | 457 kts | 138° |
| 2026-04-22 16:57 | -31.77843 | -103.95550 | 35334 ft | 458 kts | 138° |
| 2026-04-22 16:57 | -31.81608 | -103.91176 | 35337 ft | 458 kts | 138° |
| 2026-04-22 16:58 | -31.86131 | -103.85906 | 35350 ft | 458 kts | 138° |
| 2026-04-22 16:58 | -31.91384 | -103.79768 | 35346 ft | 458 kts | 138° |
| 2026-04-22 16:59 | -31.95146 | -103.75376 | 35344 ft | 458 kts | 138° |
| 2026-04-22 16:59 | -31.99675 | -103.70089 | 35342 ft | 459 kts | 138° |
| 2026-04-22 17:00 | -32.04209 | -103.64796 | 35340 ft | 459 kts | 138° |
| 2026-04-22 17:00 | -32.10996 | -103.56837 | 35347 ft | 459 kts | 138° |
| 2026-04-22 17:01 | -32.15514 | -103.51516 | 35349 ft | 459 kts | 138° |
| 2026-04-22 17:01 | -32.20035 | -103.46196 | 35359 ft | 459 kts | 138° |
| 2026-04-22 17:02 | -32.24561 | -103.40871 | 35353 ft | 459 kts | 138° |
| 2026-04-22 17:02 | -32.29078 | -103.35533 | 35351 ft | 459 kts | 138° |
| 2026-04-22 17:03 | -32.33595 | -103.30192 | 35350 ft | 459 kts | 138° |
| 2026-04-22 17:03 | -32.38113 | -103.24845 | 35349 ft | 459 kts | 138° |
| 2026-04-22 17:04 | -32.42629 | -103.19491 | 35350 ft | 459 kts | 138° |
| 2026-04-22 17:04 | -32.47140 | -103.14133 | 35362 ft | 459 kts | 138° |
| 2026-04-22 17:05 | -32.51649 | -103.08766 | 35360 ft | 459 kts | 138° |
| 2026-04-22 17:05 | -32.56154 | -103.03404 | 35358 ft | 459 kts | 138° |
| 2026-04-22 17:06 | -32.60661 | -102.98036 | 35355 ft | 459 kts | 138° |
| 2026-04-22 17:06 | -32.65167 | -102.92668 | 35353 ft | 459 kts | 138° |
| 2026-04-22 17:07 | -32.69664 | -102.87286 | 35355 ft | 459 kts | 138° |
| 2026-04-22 17:07 | -32.74155 | -102.81898 | 35358 ft | 459 kts | 138° |
| 2026-04-22 17:08 | -32.78649 | -102.76508 | 35380 ft | 459 kts | 138° |
| 2026-04-22 17:08 | -32.83134 | -102.71113 | 35369 ft | 459 kts | 138° |
| 2026-04-22 17:09 | -32.87587 | -102.65742 | 35362 ft | 459 kts | 138° |
| 2026-04-22 17:09 | -32.92066 | -102.60339 | 35361 ft | 459 kts | 138° |
| 2026-04-22 17:10 | -32.96546 | -102.54932 | 35369 ft | 459 kts | 138° |
| 2026-04-22 17:10 | -33.01027 | -102.49518 | 35363 ft | 459 kts | 138° |
| 2026-04-22 17:11 | -33.05503 | -102.44104 | 35364 ft | 459 kts | 138° |
| 2026-04-22 17:11 | -33.09977 | -102.38678 | 35370 ft | 459 kts | 138° |
| 2026-04-22 17:12 | -33.14449 | -102.33246 | 35363 ft | 459 kts | 138° |
| 2026-04-22 17:12 | -33.18925 | -102.27811 | 35362 ft | 459 kts | 137° |
| 2026-04-22 17:13 | -33.23392 | -102.22358 | 35361 ft | 459 kts | 137° |
| 2026-04-22 17:13 | -33.27858 | -102.16900 | 35364 ft | 459 kts | 137° |
| 2026-04-22 17:14 | -33.32332 | -102.11439 | 35361 ft | 459 kts | 137° |
| 2026-04-22 17:14 | -33.36799 | -102.05975 | 35364 ft | 459 kts | 137° |
| 2026-04-22 17:15 | -33.41261 | -102.00503 | 35371 ft | 459 kts | 138° |
| 2026-04-22 17:15 | -33.45717 | -101.95021 | 35371 ft | 459 kts | 137° |
| 2026-04-22 17:16 | -33.50175 | -101.89535 | 35369 ft | 459 kts | 138° |
| 2026-04-22 17:16 | -33.54637 | -101.84047 | 35368 ft | 460 kts | 137° |
| 2026-04-22 17:17 | -33.59088 | -101.78546 | 35370 ft | 460 kts | 137° |
| 2026-04-22 17:17 | -33.63539 | -101.73039 | 35373 ft | 460 kts | 137° |
| 2026-04-22 17:18 | -33.67990 | -101.67529 | 35395 ft | 460 kts | 138° |
| 2026-04-22 17:18 | -33.72446 | -101.62025 | 35387 ft | 460 kts | 138° |
| 2026-04-22 17:19 | -33.81339 | -101.50972 | 35378 ft | 460 kts | 138° |
| 2026-04-22 17:20 | -33.90194 | -101.39933 | 35378 ft | 460 kts | 138° |
| 2026-04-22 17:21 | -33.96848 | -101.31607 | 35390 ft | 460 kts | 138° |
| 2026-04-22 17:22 | -34.03493 | -101.23267 | 35392 ft | 460 kts | 138° |
| 2026-04-22 17:23 | -34.10142 | -101.14922 | 35388 ft | 460 kts | 138° |
| 2026-04-22 17:23 | -34.16782 | -101.06566 | 35382 ft | 460 kts | 138° |
| 2026-04-22 17:24 | -34.21206 | -101.00992 | 35381 ft | 460 kts | 138° |
| 2026-04-22 17:24 | -34.25625 | -100.95404 | 35409 ft | 460 kts | 138° |
| 2026-04-22 17:25 | -34.30036 | -100.89814 | 35403 ft | 459 kts | 138° |
| 2026-04-22 17:25 | -34.34443 | -100.84231 | 35404 ft | 459 kts | 138° |
| 2026-04-22 17:26 | -34.38845 | -100.78646 | 35400 ft | 458 kts | 138° |
| 2026-04-22 17:26 | -34.43236 | -100.73044 | 35397 ft | 458 kts | 138° |
| 2026-04-22 17:27 | -34.47628 | -100.67452 | 35391 ft | 458 kts | 138° |
| 2026-04-22 17:27 | -34.52024 | -100.61860 | 35390 ft | 458 kts | 138° |
| 2026-04-22 17:28 | -34.56406 | -100.56252 | 35411 ft | 458 kts | 138° |
| 2026-04-22 17:28 | -34.60752 | -100.50674 | 35408 ft | 458 kts | 138° |
| 2026-04-22 17:29 | -34.65126 | -100.45064 | 35401 ft | 457 kts | 138° |
| 2026-04-22 17:29 | -34.69522 | -100.39416 | 35397 ft | 457 kts | 138° |
| 2026-04-22 17:30 | -34.73861 | -100.33836 | 35394 ft | 457 kts | 138° |
| 2026-04-22 17:30 | -34.78228 | -100.28216 | 35393 ft | 457 kts | 138° |
| 2026-04-22 17:31 | -34.82586 | -100.22585 | 35420 ft | 457 kts | 138° |
| 2026-04-22 17:31 | -34.86936 | -100.16950 | 35426 ft | 456 kts | 138° |
| 2026-04-22 17:32 | -34.91284 | -100.11326 | 35419 ft | 456 kts | 138° |
| 2026-04-22 17:32 | -34.95622 | -100.05698 | 35411 ft | 455 kts | 138° |
| 2026-04-22 17:33 | -34.99963 | -100.00087 | 35399 ft | 453 kts | 141° |
| 2026-04-22 17:33 | -35.04665 | -99.95024 | 35404 ft | 451 kts | 144° |
| 2026-04-22 17:34 | -35.09388 | -99.89990 | 35399 ft | 451 kts | 144° |
| 2026-04-22 17:34 | -35.14103 | -99.84952 | 35414 ft | 450 kts | 144° |
| 2026-04-22 17:35 | -35.18807 | -99.79908 | 35418 ft | 450 kts | 144° |
| 2026-04-22 17:35 | -35.23511 | -99.74865 | 35412 ft | 450 kts | 144° |
| 2026-04-22 17:36 | -35.28208 | -99.69811 | 35410 ft | 450 kts | 144° |
| 2026-04-22 17:36 | -35.32903 | -99.64751 | 35406 ft | 450 kts | 144° |
| 2026-04-22 17:37 | -35.37598 | -99.59692 | 35424 ft | 449 kts | 144° |
| 2026-04-22 17:37 | -35.42250 | -99.54667 | 35429 ft | 448 kts | 144° |
| 2026-04-22 17:38 | -35.46921 | -99.49617 | 35429 ft | 447 kts | 144° |
| 2026-04-22 17:38 | -35.51583 | -99.44577 | 35432 ft | 446 kts | 144° |
| 2026-04-22 17:39 | -35.56237 | -99.39526 | 35415 ft | 447 kts | 144° |
| 2026-04-22 17:40 | -35.63214 | -99.31931 | 35408 ft | 447 kts | 144° |
| 2026-04-22 17:40 | -35.67865 | -99.26869 | 35426 ft | 446 kts | 144° |
| 2026-04-22 17:41 | -35.72511 | -99.21805 | 35424 ft | 446 kts | 144° |
| 2026-04-22 17:41 | -35.77144 | -99.16742 | 35421 ft | 445 kts | 144° |
| 2026-04-22 17:42 | -35.81772 | -99.11673 | 35417 ft | 445 kts | 144° |
| 2026-04-22 17:42 | -35.85613 | -99.07453 | 35421 ft | 445 kts | 144° |
| 2026-04-22 17:43 | -35.91018 | -99.01512 | 35410 ft | 445 kts | 144° |
| 2026-04-22 17:43 | -35.95647 | -98.96423 | 35423 ft | 446 kts | 144° |
| 2026-04-22 17:44 | -36.00276 | -98.91331 | 35421 ft | 446 kts | 144° |
| 2026-04-22 17:44 | -36.04901 | -98.86232 | 35414 ft | 446 kts | 144° |
| 2026-04-22 17:45 | -36.09522 | -98.81117 | 35409 ft | 446 kts | 144° |
| 2026-04-22 17:45 | -36.14139 | -98.75999 | 35406 ft | 446 kts | 144° |
| 2026-04-22 17:46 | -36.17978 | -98.71746 | 35411 ft | 446 kts | 144° |
| 2026-04-22 17:46 | -36.22599 | -98.66614 | 35407 ft | 446 kts | 144° |
| 2026-04-22 17:47 | -36.27216 | -98.61472 | 35396 ft | 447 kts | 144° |
| 2026-04-22 17:47 | -36.31840 | -98.56327 | 35394 ft | 447 kts | 144° |
| 2026-04-22 17:48 | -36.36463 | -98.51171 | 35396 ft | 447 kts | 144° |
| 2026-04-22 17:48 | -36.41081 | -98.46001 | 35403 ft | 447 kts | 144° |
| 2026-04-22 17:49 | -36.45701 | -98.40831 | 35420 ft | 447 kts | 144° |
| 2026-04-22 17:49 | -36.50320 | -98.35655 | 35399 ft | 447 kts | 144° |
| 2026-04-22 17:50 | -36.54930 | -98.30461 | 35414 ft | 447 kts | 144° |
| 2026-04-22 17:50 | -36.59544 | -98.25272 | 35409 ft | 447 kts | 144° |
| 2026-04-22 17:51 | -36.64123 | -98.20107 | 35403 ft | 447 kts | 144° |
| 2026-04-22 17:51 | -36.68766 | -98.14864 | 35398 ft | 447 kts | 144° |
| 2026-04-22 17:52 | -36.73344 | -98.09692 | 35414 ft | 447 kts | 144° |
| 2026-04-22 17:52 | -36.77950 | -98.04465 | 35404 ft | 448 kts | 144° |
| 2026-04-22 17:53 | -36.82554 | -97.99231 | 35400 ft | 448 kts | 144° |
| 2026-04-22 17:53 | -36.87157 | -97.93996 | 35406 ft | 448 kts | 144° |
| 2026-04-22 17:54 | -36.91769 | -97.88759 | 35396 ft | 448 kts | 144° |
| 2026-04-22 17:54 | -36.96374 | -97.83514 | 35392 ft | 448 kts | 144° |
| 2026-04-22 17:55 | -37.00976 | -97.78249 | 35408 ft | 449 kts | 144° |
| 2026-04-22 17:55 | -37.05577 | -97.72974 | 35401 ft | 449 kts | 144° |
| 2026-04-22 17:56 | -37.10181 | -97.67691 | 35395 ft | 449 kts | 144° |
| 2026-04-22 17:56 | -37.14781 | -97.62403 | 35389 ft | 449 kts | 144° |
| 2026-04-22 17:57 | -37.19384 | -97.57112 | 35402 ft | 449 kts | 144° |
| 2026-04-22 17:57 | -37.23979 | -97.51806 | 35405 ft | 449 kts | 144° |
| 2026-04-22 17:58 | -37.28574 | -97.46492 | 35395 ft | 449 kts | 144° |
| 2026-04-22 17:58 | -37.33178 | -97.41180 | 35386 ft | 449 kts | 144° |
| 2026-04-22 17:59 | -37.37781 | -97.35856 | 35383 ft | 450 kts | 144° |
| 2026-04-22 17:59 | -37.42350 | -97.30549 | 35383 ft | 450 kts | 144° |
| 2026-04-22 18:00 | -37.46198 | -97.26075 | 35382 ft | 450 kts | 144° |
| 2026-04-22 18:00 | -37.51532 | -97.19849 | 35405 ft | 450 kts | 144° |
| 2026-04-22 18:01 | -37.56125 | -97.14489 | 35397 ft | 450 kts | 144° |
| 2026-04-22 18:01 | -37.60711 | -97.09124 | 35390 ft | 450 kts | 144° |
| 2026-04-22 18:02 | -37.65298 | -97.03756 | 35386 ft | 450 kts | 144° |
| 2026-04-22 18:02 | -37.69883 | -96.98383 | 35381 ft | 450 kts | 144° |
| 2026-04-22 18:03 | -37.74464 | -96.93000 | 35378 ft | 450 kts | 144° |
| 2026-04-22 18:03 | -37.79039 | -96.87607 | 35394 ft | 450 kts | 144° |
| 2026-04-22 18:04 | -37.83612 | -96.82216 | 35408 ft | 449 kts | 144° |
| 2026-04-22 18:04 | -37.88176 | -96.76831 | 35401 ft | 448 kts | 144° |
| 2026-04-22 18:05 | -37.92731 | -96.71433 | 35392 ft | 448 kts | 144° |
| 2026-04-22 18:05 | -37.97280 | -96.66038 | 35386 ft | 448 kts | 143° |
| 2026-04-22 18:06 | -38.01826 | -96.60637 | 35396 ft | 448 kts | 143° |
| 2026-04-22 18:06 | -38.06367 | -96.55227 | 35383 ft | 448 kts | 143° |
| 2026-04-22 18:07 | -38.10909 | -96.49817 | 35374 ft | 448 kts | 143° |
| 2026-04-22 18:07 | -38.15452 | -96.44398 | 35382 ft | 448 kts | 143° |
| 2026-04-22 18:08 | -38.19988 | -96.38965 | 35378 ft | 448 kts | 143° |
| 2026-04-22 18:08 | -38.24525 | -96.33529 | 35369 ft | 448 kts | 143° |
| 2026-04-22 18:09 | -38.29062 | -96.28089 | 35379 ft | 448 kts | 142° |
| 2026-04-22 18:09 | -38.33595 | -96.22634 | 35369 ft | 448 kts | 142° |
| 2026-04-22 18:10 | -38.38092 | -96.17201 | 35365 ft | 448 kts | 142° |
| 2026-04-22 18:10 | -38.42622 | -96.11733 | 35365 ft | 448 kts | 142° |
| 2026-04-22 18:11 | -38.47157 | -96.06265 | 35372 ft | 449 kts | 142° |
| 2026-04-22 18:11 | -38.51682 | -96.00781 | 35378 ft | 449 kts | 141° |
| 2026-04-22 18:12 | -38.56203 | -95.95289 | 35363 ft | 449 kts | 141° |
| 2026-04-22 18:12 | -38.59957 | -95.90718 | 35364 ft | 449 kts | 141° |
| 2026-04-22 18:13 | -38.65238 | -95.84283 | 35352 ft | 449 kts | 141° |
| 2026-04-22 18:13 | -38.69753 | -95.78771 | 35356 ft | 449 kts | 141° |
| 2026-04-22 18:14 | -38.74269 | -95.73258 | 35358 ft | 449 kts | 141° |
| 2026-04-22 18:14 | -38.78782 | -95.67734 | 35369 ft | 449 kts | 141° |
| 2026-04-22 18:15 | -38.83286 | -95.62197 | 35358 ft | 449 kts | 141° |
| 2026-04-22 18:15 | -38.87792 | -95.56662 | 35358 ft | 449 kts | 141° |
| 2026-04-22 18:16 | -38.92297 | -95.51116 | 35348 ft | 448 kts | 141° |
| 2026-04-22 18:16 | -38.96793 | -95.45560 | 35347 ft | 449 kts | 141° |
| 2026-04-22 18:17 | -39.01288 | -95.39994 | 35361 ft | 449 kts | 141° |
| 2026-04-22 18:17 | -39.05778 | -95.34421 | 35358 ft | 448 kts | 141° |
| 2026-04-22 18:18 | -39.10272 | -95.28859 | 35355 ft | 448 kts | 141° |
| 2026-04-22 18:18 | -39.14763 | -95.23289 | 35348 ft | 448 kts | 141° |
| 2026-04-22 18:19 | -39.19245 | -95.17705 | 35345 ft | 448 kts | 141° |
| 2026-04-22 18:19 | -39.23723 | -95.12111 | 35342 ft | 448 kts | 141° |
| 2026-04-22 18:20 | -39.28199 | -95.06514 | 35355 ft | 448 kts | 141° |
| 2026-04-22 18:20 | -39.32671 | -95.00916 | 35346 ft | 448 kts | 141° |
| 2026-04-22 18:21 | -39.37138 | -94.95307 | 35347 ft | 448 kts | 141° |
| 2026-04-22 18:21 | -39.41575 | -94.89724 | 35343 ft | 448 kts | 140° |
| 2026-04-22 18:22 | -39.46036 | -94.84106 | 35333 ft | 447 kts | 140° |
| 2026-04-22 18:22 | -39.50491 | -94.78480 | 35338 ft | 447 kts | 140° |
| 2026-04-22 18:23 | -39.54944 | -94.72849 | 35335 ft | 447 kts | 140° |
| 2026-04-22 18:23 | -39.59394 | -94.67218 | 35331 ft | 447 kts | 140° |
| 2026-04-22 18:24 | -39.66052 | -94.58746 | 35324 ft | 447 kts | 140° |
| 2026-04-22 18:25 | -39.72710 | -94.50274 | 35337 ft | 447 kts | 140° |
| 2026-04-22 18:25 | -39.77144 | -94.44619 | 35325 ft | 447 kts | 140° |
| 2026-04-22 18:26 | -39.83788 | -94.36119 | 35318 ft | 446 kts | 140° |
| 2026-04-22 18:26 | -39.88209 | -94.30444 | 35313 ft | 446 kts | 140° |
| 2026-04-22 18:27 | -39.92597 | -94.24795 | 35311 ft | 446 kts | 140° |
| 2026-04-22 18:27 | -39.97016 | -94.19113 | 35334 ft | 446 kts | 140° |
| 2026-04-22 18:28 | -40.01435 | -94.13422 | 35322 ft | 447 kts | 140° |
| 2026-04-22 18:28 | -40.05852 | -94.07716 | 35310 ft | 447 kts | 140° |
| 2026-04-22 18:29 | -40.10262 | -94.02005 | 35307 ft | 447 kts | 140° |
| 2026-04-22 18:29 | -40.14667 | -93.96277 | 35300 ft | 447 kts | 140° |
| 2026-04-22 18:30 | -40.21277 | -93.87677 | 35309 ft | 447 kts | 140° |
| 2026-04-22 18:31 | -40.25687 | -93.81938 | 35297 ft | 448 kts | 140° |
| 2026-04-22 18:31 | -40.30095 | -93.76176 | 35297 ft | 448 kts | 140° |
| 2026-04-22 18:32 | -40.33760 | -93.71379 | 35289 ft | 448 kts | 140° |
| 2026-04-22 18:32 | -40.38910 | -93.64614 | 35287 ft | 448 kts | 140° |
| 2026-04-22 18:33 | -40.43320 | -93.58825 | 35296 ft | 449 kts | 140° |
| 2026-04-22 18:33 | -40.47734 | -93.53022 | 35286 ft | 449 kts | 140° |
| 2026-04-22 18:34 | -40.52116 | -93.47233 | 35278 ft | 450 kts | 140° |
| 2026-04-22 18:34 | -40.56529 | -93.41399 | 35277 ft | 450 kts | 140° |
| 2026-04-22 18:35 | -40.60944 | -93.35554 | 35270 ft | 450 kts | 140° |
| 2026-04-22 18:35 | -40.65350 | -93.29693 | 35294 ft | 451 kts | 140° |
| 2026-04-22 18:36 | -40.69770 | -93.23819 | 35269 ft | 452 kts | 140° |
| 2026-04-22 18:36 | -40.73475 | -93.18884 | 35266 ft | 452 kts | 140° |
| 2026-04-22 18:37 | -40.77872 | -93.13015 | 35264 ft | 453 kts | 140° |
| 2026-04-22 18:37 | -40.82304 | -93.07099 | 35260 ft | 453 kts | 140° |
| 2026-04-22 18:38 | -40.86733 | -93.01166 | 35268 ft | 454 kts | 140° |
| 2026-04-22 18:38 | -40.91165 | -92.95214 | 35265 ft | 455 kts | 140° |
| 2026-04-22 18:39 | -40.97827 | -92.86251 | 35253 ft | 456 kts | 140° |
| 2026-04-22 18:39 | -41.02270 | -92.80244 | 35253 ft | 457 kts | 140° |
| 2026-04-22 18:40 | -41.06714 | -92.74225 | 35248 ft | 457 kts | 140° |
| 2026-04-22 18:40 | -41.11159 | -92.68198 | 35249 ft | 457 kts | 140° |
| 2026-04-22 18:41 | -41.15607 | -92.62163 | 35253 ft | 457 kts | 140° |
| 2026-04-22 18:41 | -41.20053 | -92.56117 | 35249 ft | 457 kts | 140° |
| 2026-04-22 18:42 | -41.24491 | -92.50056 | 35247 ft | 458 kts | 140° |
| 2026-04-22 18:42 | -41.28932 | -92.43995 | 35244 ft | 458 kts | 140° |
| 2026-04-22 18:43 | -41.33374 | -92.37929 | 35252 ft | 458 kts | 140° |
| 2026-04-22 18:43 | -41.37812 | -92.31835 | 35235 ft | 459 kts | 140° |
| 2026-04-22 18:44 | -41.42254 | -92.25719 | 35234 ft | 460 kts | 140° |
| 2026-04-22 18:44 | -41.46698 | -92.19580 | 35226 ft | 460 kts | 140° |
| 2026-04-22 18:45 | -41.51149 | -92.13447 | 35221 ft | 460 kts | 140° |
| 2026-04-22 18:45 | -41.55603 | -92.07299 | 35237 ft | 461 kts | 140° |
| 2026-04-22 18:46 | -41.60053 | -92.01119 | 35217 ft | 462 kts | 140° |
| 2026-04-22 18:46 | -41.64509 | -91.94913 | 35211 ft | 463 kts | 140° |
| 2026-04-22 18:47 | -41.68972 | -91.88696 | 35214 ft | 463 kts | 140° |
| 2026-04-22 18:47 | -41.73406 | -91.82511 | 35210 ft | 464 kts | 140° |
| 2026-04-22 18:48 | -41.77872 | -91.76271 | 35221 ft | 464 kts | 140° |
| 2026-04-22 18:48 | -41.82343 | -91.70002 | 35205 ft | 465 kts | 140° |
| 2026-04-22 18:49 | -41.86817 | -91.63722 | 35196 ft | 466 kts | 140° |
| 2026-04-22 18:49 | -41.91298 | -91.57432 | 35198 ft | 466 kts | 140° |
| 2026-04-22 18:50 | -41.95767 | -91.51114 | 35196 ft | 467 kts | 140° |
| 2026-04-22 18:50 | -42.00238 | -91.44782 | 35201 ft | 468 kts | 140° |
| 2026-04-22 18:51 | -42.04716 | -91.38432 | 35187 ft | 468 kts | 140° |
| 2026-04-22 18:51 | -42.09200 | -91.32070 | 35182 ft | 469 kts | 140° |
| 2026-04-22 18:52 | -42.13683 | -91.25692 | 35173 ft | 469 kts | 140° |
| 2026-04-22 18:52 | -42.18165 | -91.19294 | 35173 ft | 469 kts | 140° |
| 2026-04-22 18:53 | -42.22646 | -91.12886 | 35190 ft | 470 kts | 140° |
| 2026-04-22 18:53 | -42.27134 | -91.06461 | 35175 ft | 471 kts | 140° |
| 2026-04-22 18:54 | -42.31625 | -91.00015 | 35162 ft | 471 kts | 140° |
| 2026-04-22 18:54 | -42.36112 | -90.93556 | 35153 ft | 471 kts | 140° |
| 2026-04-22 18:55 | -42.40599 | -90.87079 | 35191 ft | 472 kts | 140° |
| 2026-04-22 18:55 | -42.45086 | -90.80601 | 35160 ft | 472 kts | 140° |
| 2026-04-22 18:56 | -42.49573 | -90.74095 | 35159 ft | 473 kts | 140° |
| 2026-04-22 18:56 | -42.54059 | -90.67576 | 35142 ft | 473 kts | 140° |
| 2026-04-22 18:57 | -42.58515 | -90.61092 | 35141 ft | 473 kts | 140° |
| 2026-04-22 18:57 | -42.63002 | -90.54547 | 35166 ft | 474 kts | 140° |
| 2026-04-22 18:58 | -42.67488 | -90.47982 | 35148 ft | 474 kts | 140° |
| 2026-04-22 18:58 | -42.71970 | -90.41412 | 35136 ft | 474 kts | 140° |
| 2026-04-22 18:59 | -42.76454 | -90.34835 | 35140 ft | 474 kts | 140° |
| 2026-04-22 18:59 | -42.80936 | -90.28237 | 35122 ft | 475 kts | 140° |
| 2026-04-22 19:00 | -42.85416 | -90.21622 | 35138 ft | 475 kts | 140° |
| 2026-04-22 19:00 | -42.89893 | -90.14995 | 35122 ft | 475 kts | 140° |
| 2026-04-22 19:01 | -42.94373 | -90.08370 | 35111 ft | 475 kts | 140° |
| 2026-04-22 19:01 | -42.98844 | -90.01724 | 35110 ft | 475 kts | 140° |
| 2026-04-22 19:02 | -43.03364 | -89.95154 | 35137 ft | 474 kts | 141° |
| 2026-04-22 19:02 | -43.07981 | -89.88734 | 35119 ft | 473 kts | 142° |
| 2026-04-22 19:03 | -43.12608 | -89.82326 | 35111 ft | 473 kts | 142° |
| 2026-04-22 19:03 | -43.17208 | -89.75862 | 35106 ft | 474 kts | 141° |
| 2026-04-22 19:04 | -43.21788 | -89.69368 | 35096 ft | 474 kts | 141° |
| 2026-04-22 19:04 | -43.26370 | -89.62864 | 35098 ft | 474 kts | 141° |
| 2026-04-22 19:05 | -43.30950 | -89.56355 | 35089 ft | 474 kts | 141° |
| 2026-04-22 19:05 | -43.35528 | -89.49835 | 35078 ft | 474 kts | 141° |
| 2026-04-22 19:06 | -43.40075 | -89.43348 | 35081 ft | 474 kts | 141° |
| 2026-04-22 19:07 | -43.46938 | -89.33550 | 35104 ft | 474 kts | 141° |
| 2026-04-22 19:07 | -43.51501 | -89.26999 | 35085 ft | 474 kts | 141° |
| 2026-04-22 19:08 | -43.56061 | -89.20450 | 35075 ft | 473 kts | 141° |
| 2026-04-22 19:08 | -43.60618 | -89.13890 | 35059 ft | 474 kts | 141° |
| 2026-04-22 19:09 | -43.65170 | -89.07303 | 35089 ft | 474 kts | 141° |
| 2026-04-22 19:09 | -43.68985 | -89.01781 | 35063 ft | 474 kts | 141° |
| 2026-04-22 19:10 | -43.74273 | -88.94117 | 35062 ft | 474 kts | 141° |
| 2026-04-22 19:10 | -43.78818 | -88.87503 | 35044 ft | 474 kts | 141° |
| 2026-04-22 19:11 | -43.83358 | -88.80880 | 35075 ft | 474 kts | 141° |
| 2026-04-22 19:11 | -43.87900 | -88.74238 | 35052 ft | 475 kts | 141° |
| 2026-04-22 19:12 | -43.92440 | -88.67571 | 35033 ft | 475 kts | 141° |
| 2026-04-22 19:12 | -43.96984 | -88.60912 | 35025 ft | 475 kts | 141° |
| 2026-04-22 19:13 | -44.01534 | -88.54244 | 35021 ft | 476 kts | 141° |
| 2026-04-22 19:13 | -44.06074 | -88.47545 | 35025 ft | 476 kts | 141° |
| 2026-04-22 19:14 | -44.10608 | -88.40823 | 35017 ft | 477 kts | 141° |
| 2026-04-22 19:14 | -44.15115 | -88.34132 | 35007 ft | 477 kts | 141° |
| 2026-04-22 19:15 | -44.18920 | -88.28482 | 35001 ft | 477 kts | 141° |
| 2026-04-22 19:15 | -44.24198 | -88.20629 | 35018 ft | 478 kts | 141° |
| 2026-04-22 19:16 | -44.28743 | -88.13846 | 35002 ft | 479 kts | 141° |
| 2026-04-22 19:16 | -44.33320 | -88.07001 | 34987 ft | 479 kts | 141° |
| 2026-04-22 19:17 | -44.37832 | -88.00224 | 34975 ft | 479 kts | 141° |
| 2026-04-22 19:17 | -44.42372 | -87.93386 | 34997 ft | 480 kts | 141° |
| 2026-04-22 19:18 | -44.46920 | -87.86528 | 34978 ft | 481 kts | 141° |
| 2026-04-22 19:18 | -44.51470 | -87.79648 | 34974 ft | 481 kts | 141° |
| 2026-04-22 19:19 | -44.56018 | -87.72760 | 34962 ft | 482 kts | 141° |
| 2026-04-22 19:19 | -44.60570 | -87.65857 | 34984 ft | 482 kts | 141° |
| 2026-04-22 19:20 | -44.65125 | -87.58926 | 34960 ft | 483 kts | 141° |
| 2026-04-22 19:20 | -44.69678 | -87.51973 | 34944 ft | 484 kts | 141° |
| 2026-04-22 19:21 | -44.74229 | -87.44995 | 34938 ft | 484 kts | 141° |
| 2026-04-22 19:21 | -44.78777 | -87.37996 | 34968 ft | 485 kts | 141° |
| 2026-04-22 19:22 | -44.83336 | -87.30978 | 34943 ft | 486 kts | 141° |
| 2026-04-22 19:22 | -44.87904 | -87.23944 | 34932 ft | 487 kts | 141° |
| 2026-04-22 19:23 | -44.92467 | -87.16884 | 34915 ft | 487 kts | 140° |
| 2026-04-22 19:23 | -44.96265 | -87.11006 | 34918 ft | 488 kts | 140° |
| 2026-04-22 19:24 | -45.00830 | -87.03927 | 34921 ft | 488 kts | 140° |
| 2026-04-22 19:24 | -45.05395 | -86.96823 | 34913 ft | 488 kts | 140° |
| 2026-04-22 19:25 | -45.09948 | -86.89701 | 34909 ft | 488 kts | 140° |
| 2026-04-22 19:25 | -45.14497 | -86.82568 | 34904 ft | 488 kts | 140° |
| 2026-04-22 19:26 | -45.19053 | -86.75429 | 34914 ft | 489 kts | 140° |
| 2026-04-22 19:26 | -45.23603 | -86.68264 | 34902 ft | 489 kts | 140° |
| 2026-04-22 19:27 | -45.28156 | -86.61081 | 34889 ft | 489 kts | 140° |
| 2026-04-22 19:27 | -45.32706 | -86.53888 | 34888 ft | 490 kts | 140° |
| 2026-04-22 19:28 | -45.37261 | -86.46671 | 34895 ft | 491 kts | 140° |
| 2026-04-22 19:28 | -45.41808 | -86.39426 | 34873 ft | 491 kts | 140° |
| 2026-04-22 19:29 | -45.46362 | -86.32173 | 34869 ft | 491 kts | 140° |
| 2026-04-22 19:29 | -45.50918 | -86.24905 | 34861 ft | 492 kts | 140° |
| 2026-04-22 19:30 | -45.54702 | -86.18847 | 34887 ft | 492 kts | 140° |
| 2026-04-22 19:30 | -45.59987 | -86.10338 | 34868 ft | 493 kts | 140° |
| 2026-04-22 19:31 | -45.64534 | -86.03000 | 34846 ft | 493 kts | 139° |
| 2026-04-22 19:31 | -45.69083 | -85.95647 | 34847 ft | 494 kts | 139° |
| 2026-04-22 19:32 | -45.73638 | -85.88285 | 34866 ft | 494 kts | 140° |
| 2026-04-22 19:32 | -45.78197 | -85.80901 | 34844 ft | 495 kts | 139° |
| 2026-04-22 19:33 | -45.82743 | -85.73495 | 34831 ft | 495 kts | 139° |
| 2026-04-22 19:33 | -45.87280 | -85.66066 | 34817 ft | 495 kts | 139° |
| 2026-04-22 19:34 | -45.91824 | -85.58631 | 34846 ft | 496 kts | 139° |
| 2026-04-22 19:34 | -45.96372 | -85.51175 | 34823 ft | 496 kts | 139° |
| 2026-04-22 19:35 | -46.00914 | -85.43701 | 34807 ft | 496 kts | 139° |
| 2026-04-22 19:35 | -46.05454 | -85.36210 | 34807 ft | 497 kts | 139° |
| 2026-04-22 19:36 | -46.09991 | -85.28691 | 34834 ft | 497 kts | 139° |
| 2026-04-22 19:36 | -46.14524 | -85.21166 | 34806 ft | 497 kts | 139° |
| 2026-04-22 19:37 | -46.19057 | -85.13616 | 34785 ft | 498 kts | 139° |
| 2026-04-22 19:37 | -46.23588 | -85.06050 | 34779 ft | 498 kts | 139° |
| 2026-04-22 19:38 | -46.28121 | -84.98470 | 34806 ft | 499 kts | 139° |
| 2026-04-22 19:38 | -46.32656 | -84.90881 | 34783 ft | 499 kts | 138° |
| 2026-04-22 19:39 | -46.37186 | -84.83265 | 34774 ft | 499 kts | 138° |
| 2026-04-22 19:39 | -46.41705 | -84.75625 | 34750 ft | 499 kts | 138° |
| 2026-04-22 19:40 | -46.46220 | -84.67964 | 34790 ft | 500 kts | 138° |
| 2026-04-22 19:40 | -46.50739 | -84.60298 | 34768 ft | 500 kts | 138° |
| 2026-04-22 19:41 | -46.55256 | -84.52619 | 34751 ft | 500 kts | 138° |
| 2026-04-22 19:41 | -46.59805 | -84.44876 | 35006 ft | 506 kts | 137° |
| 2026-04-22 19:41 | -46.62085 | -84.40976 | 35237 ft | 506 kts | 137° |
| 2026-04-22 19:42 | -46.64362 | -84.37074 | 35475 ft | 506 kts | 137° |
| 2026-04-22 19:42 | -46.66636 | -84.33168 | 35714 ft | 505 kts | 137° |
| 2026-04-22 19:42 | -46.68903 | -84.29273 | 35915 ft | 504 kts | 137° |
| 2026-04-22 19:42 | -46.71173 | -84.25375 | 36146 ft | 504 kts | 137° |
| 2026-04-22 19:43 | -46.75694 | -84.17587 | 36585 ft | 503 kts | 136° |
| 2026-04-22 19:43 | -46.77948 | -84.13693 | 36729 ft | 503 kts | 136° |
| 2026-04-22 19:43 | -46.80203 | -84.09794 | 36749 ft | 502 kts | 136° |
| 2026-04-22 19:44 | -46.84697 | -84.02003 | 36725 ft | 502 kts | 136° |
| 2026-04-22 19:44 | -46.89194 | -83.94193 | 36734 ft | 502 kts | 136° |
| 2026-04-22 19:45 | -46.93683 | -83.86372 | 36726 ft | 502 kts | 136° |
| 2026-04-22 19:45 | -46.98169 | -83.78530 | 36718 ft | 502 kts | 136° |
| 2026-04-22 19:46 | -47.02649 | -83.70673 | 36741 ft | 503 kts | 136° |
| 2026-04-22 19:46 | -47.07131 | -83.62804 | 36718 ft | 503 kts | 136° |
| 2026-04-22 19:47 | -47.11606 | -83.54919 | 36714 ft | 503 kts | 136° |
| 2026-04-22 19:47 | -47.16076 | -83.47014 | 36697 ft | 503 kts | 136° |
| 2026-04-22 19:48 | -47.20537 | -83.39089 | 36736 ft | 503 kts | 135° |
| 2026-04-22 19:48 | -47.24999 | -83.31153 | 36705 ft | 503 kts | 135° |
| 2026-04-22 19:49 | -47.29427 | -83.23270 | 36683 ft | 503 kts | 135° |
| 2026-04-22 19:49 | -47.33871 | -83.15293 | 36679 ft | 503 kts | 135° |
| 2026-04-22 19:50 | -47.38318 | -83.07316 | 36672 ft | 504 kts | 135° |
| 2026-04-22 19:50 | -47.42768 | -82.99323 | 36696 ft | 504 kts | 135° |
| 2026-04-22 19:51 | -47.47210 | -82.91315 | 36684 ft | 504 kts | 135° |
| 2026-04-22 19:51 | -47.51639 | -82.83286 | 36645 ft | 504 kts | 135° |
| 2026-04-22 19:52 | -47.56062 | -82.75234 | 36650 ft | 504 kts | 135° |
| 2026-04-22 19:52 | -47.60491 | -82.67177 | 36681 ft | 504 kts | 135° |
| 2026-04-22 19:53 | -47.64919 | -82.59113 | 36661 ft | 504 kts | 135° |
| 2026-04-22 19:53 | -47.69332 | -82.51022 | 36654 ft | 504 kts | 134° |
| 2026-04-22 19:54 | -47.73744 | -82.42914 | 36643 ft | 505 kts | 134° |
| 2026-04-22 19:54 | -47.78146 | -82.34792 | 36659 ft | 505 kts | 134° |
| 2026-04-22 19:55 | -47.82551 | -82.26652 | 36643 ft | 505 kts | 134° |
| 2026-04-22 19:55 | -47.86947 | -82.18503 | 36634 ft | 505 kts | 134° |
| 2026-04-22 19:56 | -47.91339 | -82.10334 | 36622 ft | 505 kts | 134° |
| 2026-04-22 19:56 | -47.95731 | -82.02160 | 36655 ft | 505 kts | 134° |
| 2026-04-22 19:57 | -48.00113 | -81.93967 | 36619 ft | 505 kts | 134° |
| 2026-04-22 19:57 | -48.04484 | -81.85760 | 36603 ft | 505 kts | 134° |
| 2026-04-22 19:58 | -48.08854 | -81.77542 | 36604 ft | 505 kts | 134° |
| 2026-04-22 19:58 | -48.13184 | -81.69363 | 36596 ft | 505 kts | 133° |
| 2026-04-22 20:00 | -48.28415 | -81.40426 | 36574 ft | 505 kts | 133° |
| 2026-04-22 20:01 | -48.32748 | -81.32121 | 36609 ft | 505 kts | 133° |
| 2026-04-22 20:01 | -48.37080 | -81.23796 | 36593 ft | 506 kts | 133° |
| 2026-04-22 20:02 | -48.41412 | -81.15459 | 36574 ft | 506 kts | 133° |
| 2026-04-22 20:02 | -48.45740 | -81.07113 | 36569 ft | 506 kts | 133° |
| 2026-04-22 20:03 | -48.50058 | -80.98740 | 36556 ft | 506 kts | 133° |
| 2026-04-22 20:03 | -48.54367 | -80.90351 | 36557 ft | 506 kts | 133° |
| 2026-04-22 20:04 | -48.58674 | -80.81956 | 36527 ft | 506 kts | 132° |
| 2026-04-22 20:04 | -48.62976 | -80.73537 | 36541 ft | 506 kts | 132° |
| 2026-04-22 20:05 | -48.67278 | -80.65099 | 36547 ft | 506 kts | 132° |
| 2026-04-22 20:05 | -48.71572 | -80.56652 | 36579 ft | 507 kts | 132° |
| 2026-04-22 20:06 | -48.75864 | -80.48184 | 36566 ft | 507 kts | 132° |
| 2026-04-22 20:06 | -48.80146 | -80.39699 | 36546 ft | 507 kts | 132° |
| 2026-04-22 20:07 | -48.84424 | -80.31190 | 36528 ft | 507 kts | 132° |
| 2026-04-22 20:07 | -48.88694 | -80.22677 | 36524 ft | 507 kts | 131° |
| 2026-04-22 20:08 | -48.92964 | -80.14137 | 36545 ft | 507 kts | 131° |
| 2026-04-22 20:08 | -48.97201 | -80.05652 | 36524 ft | 507 kts | 131° |
| 2026-04-22 20:09 | -49.01412 | -79.97024 | 36524 ft | 508 kts | 129° |
| 2026-04-22 20:09 | -49.05432 | -79.88138 | 36516 ft | 510 kts | 127° |
| 2026-04-22 20:10 | -49.09352 | -79.79124 | 36517 ft | 510 kts | 127° |
| 2026-04-22 20:10 | -49.12624 | -79.71645 | 36514 ft | 510 kts | 128° |
| 2026-04-22 20:11 | -49.16594 | -79.62671 | 36504 ft | 510 kts | 128° |
| 2026-04-22 20:11 | -49.20574 | -79.53704 | 36504 ft | 510 kts | 128° |
| 2026-04-22 20:12 | -49.24543 | -79.44707 | 36496 ft | 510 kts | 127° |
| 2026-04-22 20:12 | -49.28491 | -79.35679 | 36525 ft | 510 kts | 127° |
| 2026-04-22 20:13 | -49.32439 | -79.26636 | 36472 ft | 511 kts | 127° |
| 2026-04-22 20:13 | -49.36386 | -79.17573 | 36478 ft | 511 kts | 127° |
| 2026-04-22 20:14 | -49.40320 | -79.08494 | 36474 ft | 511 kts | 127° |
| 2026-04-22 20:14 | -49.44256 | -78.99401 | 36481 ft | 511 kts | 127° |
| 2026-04-22 20:15 | -49.48180 | -78.90294 | 36496 ft | 511 kts | 127° |
| 2026-04-22 20:15 | -49.52098 | -78.81155 | 36477 ft | 512 kts | 127° |
| 2026-04-22 20:16 | -49.56012 | -78.72002 | 36438 ft | 512 kts | 127° |
| 2026-04-22 20:16 | -49.59925 | -78.62844 | 36444 ft | 512 kts | 127° |
| 2026-04-22 20:17 | -49.63831 | -78.53667 | 36498 ft | 512 kts | 126° |
| 2026-04-22 20:17 | -49.67721 | -78.44470 | 36454 ft | 512 kts | 126° |
| 2026-04-22 20:18 | -49.71608 | -78.35254 | 36456 ft | 512 kts | 126° |
| 2026-04-22 20:18 | -49.75467 | -78.26092 | 36449 ft | 512 kts | 126° |
| 2026-04-22 20:19 | -49.79344 | -78.16843 | 36450 ft | 512 kts | 126° |
| 2026-04-22 20:19 | -49.83208 | -78.07574 | 36455 ft | 512 kts | 126° |
| 2026-04-22 20:20 | -49.87079 | -77.98298 | 36455 ft | 512 kts | 126° |
| 2026-04-22 20:20 | -49.90938 | -77.89008 | 36449 ft | 513 kts | 126° |
| 2026-04-22 20:21 | -49.94781 | -77.79687 | 36446 ft | 513 kts | 125° |
| 2026-04-22 20:21 | -49.98621 | -77.70349 | 36441 ft | 513 kts | 125° |
| 2026-04-22 20:22 | -50.02456 | -77.61003 | 36473 ft | 513 kts | 125° |
| 2026-04-22 20:22 | -50.06287 | -77.51637 | 36430 ft | 513 kts | 125° |
| 2026-04-22 20:23 | -50.10109 | -77.42257 | 36432 ft | 513 kts | 125° |
| 2026-04-22 20:23 | -50.13924 | -77.32860 | 36428 ft | 513 kts | 125° |
| 2026-04-22 20:24 | -50.17735 | -77.23446 | 36464 ft | 513 kts | 124° |
| 2026-04-22 20:24 | -50.21543 | -77.14016 | 36443 ft | 514 kts | 124° |
| 2026-04-22 20:25 | -50.25344 | -77.04566 | 36420 ft | 514 kts | 124° |
| 2026-04-22 20:25 | -50.29129 | -76.95089 | 36408 ft | 514 kts | 124° |
| 2026-04-22 20:26 | -50.32906 | -76.85602 | 36411 ft | 514 kts | 124° |
| 2026-04-22 20:26 | -50.36675 | -76.76103 | 36417 ft | 514 kts | 124° |
| 2026-04-22 20:27 | -50.40438 | -76.66584 | 36406 ft | 514 kts | 124° |
| 2026-04-22 20:27 | -50.44197 | -76.57063 | 36402 ft | 514 kts | 124° |
| 2026-04-22 20:28 | -50.47955 | -76.47520 | 36423 ft | 514 kts | 124° |
| 2026-04-22 20:28 | -50.51697 | -76.37968 | 36415 ft | 514 kts | 123° |
| 2026-04-22 20:29 | -50.55404 | -76.28448 | 36440 ft | 514 kts | 123° |
| 2026-04-22 20:29 | -50.59132 | -76.18854 | 36427 ft | 514 kts | 123° |
| 2026-04-22 20:30 | -50.62857 | -76.09244 | 36408 ft | 514 kts | 123° |
| 2026-04-22 20:30 | -50.66571 | -75.99611 | 36405 ft | 514 kts | 123° |
| 2026-04-22 20:31 | -50.70274 | -75.89957 | 36398 ft | 515 kts | 123° |
| 2026-04-22 20:31 | -50.73982 | -75.80284 | 36398 ft | 515 kts | 123° |
| 2026-04-22 20:32 | -50.77684 | -75.70599 | 36394 ft | 515 kts | 123° |
| 2026-04-22 20:32 | -50.81378 | -75.60888 | 36387 ft | 516 kts | 123° |
| 2026-04-22 20:33 | -50.85052 | -75.51149 | 36383 ft | 516 kts | 123° |
| 2026-04-22 20:33 | -50.88728 | -75.41396 | 36387 ft | 516 kts | 123° |
| 2026-04-22 20:34 | -50.92404 | -75.31629 | 36411 ft | 516 kts | 122° |
| 2026-04-22 20:34 | -50.96048 | -75.21909 | 36370 ft | 516 kts | 122° |
| 2026-04-22 20:35 | -50.99701 | -75.12105 | 36371 ft | 516 kts | 122° |
| 2026-04-22 20:35 | -51.03347 | -75.02285 | 36381 ft | 516 kts | 122° |
| 2026-04-22 20:36 | -51.06987 | -74.92448 | 36423 ft | 516 kts | 122° |
| 2026-04-22 20:36 | -51.10623 | -74.82591 | 36384 ft | 517 kts | 122° |
| 2026-04-22 20:37 | -51.14249 | -74.72723 | 36377 ft | 517 kts | 122° |
| 2026-04-22 20:37 | -51.17862 | -74.62826 | 36360 ft | 517 kts | 122° |
| 2026-04-22 20:38 | -51.21474 | -74.52919 | 36346 ft | 516 kts | 122° |
| 2026-04-22 20:38 | -51.25084 | -74.43011 | 36396 ft | 516 kts | 122° |
| 2026-04-22 20:39 | -51.28672 | -74.33081 | 36388 ft | 516 kts | 122° |
| 2026-04-22 20:39 | -51.32155 | -74.23370 | 36375 ft | 516 kts | 121° |
| 2026-04-22 20:40 | -51.35721 | -74.13413 | 36368 ft | 515 kts | 121° |
| 2026-04-22 20:40 | -51.39281 | -74.03457 | 36368 ft | 515 kts | 121° |
| 2026-04-22 20:41 | -51.42840 | -73.93485 | 36381 ft | 515 kts | 121° |
| 2026-04-22 20:41 | -51.46388 | -73.83503 | 36372 ft | 514 kts | 121° |
| 2026-04-22 20:42 | -51.49909 | -73.73539 | 36364 ft | 513 kts | 121° |
| 2026-04-22 20:42 | -51.53389 | -73.63631 | 36347 ft | 513 kts | 121° |
| 2026-04-22 20:43 | -51.56891 | -73.53639 | 36341 ft | 513 kts | 121° |
| 2026-04-22 20:43 | -51.60381 | -73.43640 | 36351 ft | 512 kts | 121° |
| 2026-04-22 20:44 | -51.63860 | -73.33646 | 36284 ft | 507 kts | 119° |
| 2026-04-22 20:44 | -51.67241 | -73.23876 | 36232 ft | 496 kts | 119° |
| 2026-04-22 20:44 | -51.68915 | -73.19027 | 35961 ft | 494 kts | 119° |
| 2026-04-22 20:45 | -51.70581 | -73.14190 | 35700 ft | 494 kts | 119° |
| 2026-04-22 20:45 | -51.72246 | -73.09340 | 35449 ft | 494 kts | 119° |
| 2026-04-22 20:45 | -51.73910 | -73.04492 | 35187 ft | 494 kts | 119° |
| 2026-04-22 20:45 | -51.75568 | -72.99646 | 34730 ft | 492 kts | 119° |
| 2026-04-22 20:46 | -51.78875 | -72.89966 | 33537 ft | 492 kts | 118° |
| 2026-04-22 20:46 | -51.80527 | -72.85123 | 32886 ft | 492 kts | 118° |
| 2026-04-22 20:46 | -51.82150 | -72.80358 | 32317 ft | 489 kts | 118° |
| 2026-04-22 20:47 | -51.83804 | -72.75486 | 31720 ft | 487 kts | 118° |
| 2026-04-22 20:47 | -51.85404 | -72.70751 | 31115 ft | 485 kts | 118° |
| 2026-04-22 20:47 | -51.87015 | -72.65968 | 30573 ft | 484 kts | 118° |
| 2026-04-22 20:47 | -51.88625 | -72.61192 | 30003 ft | 483 kts | 118° |
| 2026-04-22 20:48 | -51.90252 | -72.56363 | 29441 ft | 482 kts | 118° |
| 2026-04-22 20:48 | -51.91831 | -72.51670 | 28850 ft | 480 kts | 118° |
| 2026-04-22 20:48 | -51.93418 | -72.46940 | 28326 ft | 476 kts | 118° |
| 2026-04-22 20:48 | -51.94996 | -72.42228 | 27792 ft | 475 kts | 118° |
| 2026-04-22 20:49 | -51.96565 | -72.37534 | 27273 ft | 472 kts | 118° |
| 2026-04-22 20:49 | -51.98123 | -72.32862 | 26747 ft | 470 kts | 118° |
| 2026-04-22 20:49 | -51.99671 | -72.28206 | 26218 ft | 468 kts | 118° |
| 2026-04-22 20:49 | -52.01212 | -72.23563 | 25670 ft | 467 kts | 118° |
| 2026-04-22 20:50 | -52.02749 | -72.18930 | 25107 ft | 465 kts | 118° |
| 2026-04-22 20:50 | -52.04265 | -72.14358 | 24553 ft | 454 kts | 118° |
| 2026-04-22 20:50 | -52.05744 | -72.09890 | 23984 ft | 445 kts | 118° |
| 2026-04-22 20:50 | -52.07205 | -72.05520 | 23403 ft | 435 kts | 121° |
| 2026-04-22 20:51 | -52.08948 | -72.01613 | 22945 ft | 421 kts | 135° |
| 2026-04-22 20:51 | -52.11042 | -71.98379 | 22412 ft | 412 kts | 143° |
| 2026-04-22 20:51 | -52.13209 | -71.95347 | 21930 ft | 410 kts | 143° |
| 2026-04-22 20:51 | -52.15367 | -71.92314 | 21438 ft | 409 kts | 143° |
| 2026-04-22 20:52 | -52.17514 | -71.89280 | 20970 ft | 408 kts | 143° |
| 2026-04-22 20:52 | -52.19656 | -71.86246 | 20504 ft | 408 kts | 143° |
| 2026-04-22 20:52 | -52.21795 | -71.83214 | 20033 ft | 407 kts | 143° |
| 2026-04-22 20:52 | -52.23933 | -71.80183 | 19564 ft | 407 kts | 143° |
| 2026-04-22 20:53 | -52.26069 | -71.77152 | 19102 ft | 407 kts | 143° |
| 2026-04-22 20:53 | -52.28201 | -71.74120 | 18636 ft | 407 kts | 143° |
| 2026-04-22 20:53 | -52.30334 | -71.71085 | 18170 ft | 407 kts | 144° |
| 2026-04-22 20:53 | -52.32470 | -71.68046 | 17700 ft | 407 kts | 144° |
| 2026-04-22 20:54 | -52.34608 | -71.65000 | 17198 ft | 407 kts | 144° |
| 2026-04-22 20:54 | -52.36736 | -71.61956 | 16748 ft | 406 kts | 143° |
| 2026-04-22 20:54 | -52.38853 | -71.58919 | 16282 ft | 404 kts | 143° |
| 2026-04-22 20:54 | -52.40965 | -71.55888 | 15819 ft | 403 kts | 143° |
| 2026-04-22 20:55 | -52.43070 | -71.52869 | 15375 ft | 401 kts | 143° |
| 2026-04-22 20:55 | -52.45165 | -71.49854 | 14937 ft | 400 kts | 143° |
| 2026-04-22 20:55 | -52.47251 | -71.46853 | 14493 ft | 399 kts | 143° |
| 2026-04-22 20:55 | -52.49333 | -71.43859 | 14102 ft | 396 kts | 143° |
| 2026-04-22 20:56 | -52.51406 | -71.40875 | 13660 ft | 396 kts | 143° |
| 2026-04-22 20:56 | -52.53466 | -71.37905 | 13297 ft | 393 kts | 143° |
| 2026-04-22 20:56 | -52.55495 | -71.34966 | 12844 ft | 386 kts | 143° |
| 2026-04-22 20:56 | -52.57496 | -71.32058 | 12244 ft | 379 kts | 143° |
| 2026-04-22 20:57 | -52.59435 | -71.29233 | 11817 ft | 367 kts | 144° |
| 2026-04-22 20:57 | -52.61317 | -71.26488 | 11413 ft | 357 kts | 144° |
| 2026-04-22 20:57 | -52.63151 | -71.23819 | 10985 ft | 348 kts | 144° |
| 2026-04-22 20:57 | -52.64942 | -71.21220 | 10568 ft | 339 kts | 145° |
| 2026-04-22 20:58 | -52.66689 | -71.18682 | 10155 ft | 332 kts | 145° |
| 2026-04-22 20:58 | -52.68408 | -71.16178 | 9751 ft | 329 kts | 145° |
| 2026-04-22 20:58 | -52.70131 | -71.13672 | 9334 ft | 332 kts | 145° |
| 2026-04-22 20:58 | -52.71869 | -71.11142 | 8885 ft | 335 kts | 145° |
| 2026-04-22 20:59 | -52.73611 | -71.08595 | 8623 ft | 330 kts | 144° |
| 2026-04-22 20:59 | -52.74740 | -71.06936 | 8528 ft | 326 kts | 144° |
| 2026-04-22 20:59 | -52.76417 | -71.04472 | 8378 ft | 322 kts | 144° |
| 2026-04-22 20:59 | -52.78637 | -71.01217 | 7828 ft | 323 kts | 144° |
| 2026-04-22 21:00 | -52.80319 | -70.98749 | 7380 ft | 324 kts | 144° |
| 2026-04-22 21:00 | -52.82006 | -70.96265 | 6902 ft | 327 kts | 144° |
| 2026-04-22 21:00 | -52.83709 | -70.93753 | 6429 ft | 329 kts | 144° |
| 2026-04-22 21:00 | -52.84862 | -70.92035 | 6096 ft | 332 kts | 142° |
| 2026-04-22 21:01 | -52.86547 | -70.89396 | 5593 ft | 335 kts | 140° |
| 2026-04-22 21:01 | -52.88191 | -70.86710 | 5241 ft | 329 kts | 139° |
| 2026-04-22 21:01 | -52.89803 | -70.84036 | 4570 ft | 325 kts | 137° |
| 2026-04-22 21:01 | -52.91351 | -70.81458 | 4196 ft | 311 kts | 137° |
| 2026-04-22 21:02 | -52.92817 | -70.79022 | 4095 ft | 288 kts | 137° |
| 2026-04-22 21:02 | -52.94180 | -70.76767 | 4018 ft | 266 kts | 137° |
| 2026-04-22 21:02 | -52.95444 | -70.74688 | 3937 ft | 245 kts | 137° |
| 2026-04-22 21:02 | -52.96614 | -70.72765 | 3813 ft | 221 kts | 137° |
| 2026-04-22 21:03 | -52.97637 | -70.71088 | 3696 ft | 201 kts | 137° |
| 2026-04-22 21:03 | -52.98634 | -70.69461 | 3616 ft | 197 kts | 137° |
| 2026-04-22 21:03 | -52.99662 | -70.68022 | 3449 ft | 194 kts | 154° |
| 2026-04-22 21:03 | -53.00865 | -70.67163 | 3175 ft | 184 kts | 176° |
| 2026-04-22 21:04 | -53.02089 | -70.66920 | 2938 ft | 172 kts | 196° |
| 2026-04-22 21:04 | -53.03218 | -70.67205 | 2735 ft | 158 kts | 213° |
| 2026-04-22 21:04 | -53.04192 | -70.67884 | 2540 ft | 147 kts | 228° |
| 2026-04-22 21:04 | -53.04985 | -70.68846 | 2357 ft | 137 kts | 241° |
| 2026-04-22 21:05 | -53.05595 | -70.69996 | 2186 ft | 129 kts | 252° |
| 2026-04-22 21:05 | -53.06026 | -70.71255 | 2028 ft | 122 kts | 262° |
| 2026-04-22 21:05 | -53.06292 | -70.72563 | 1885 ft | 118 kts | 271° |
| 2026-04-22 21:05 | -53.06403 | -70.73918 | 1737 ft | 119 kts | 279° |
| 2026-04-22 21:06 | -53.06364 | -70.75303 | 1595 ft | 121 kts | 287° |
| 2026-04-22 21:06 | -53.06142 | -70.76652 | 1433 ft | 122 kts | 297° |
| 2026-04-22 21:06 | -53.05746 | -70.77907 | 1257 ft | 123 kts | 307° |
| 2026-04-22 21:06 | -53.05188 | -70.78997 | 1099 ft | 125 kts | 316° |
| 2026-04-22 21:07 | -53.04513 | -70.79962 | 925 ft | 129 kts | 319° |
| 2026-04-22 21:07 | -53.03849 | -70.80928 | 754 ft | 127 kts | 318° |
| 2026-04-22 21:07 | -53.03180 | -70.81907 | 551 ft | 129 kts | 319° |
| 2026-04-22 21:07 | -53.02509 | -70.82884 | 361 ft | 129 kts | 318° |
| 2026-04-22 21:08 | -53.01834 | -70.83855 | 292 ft | 130 kts | 319° |
| 2026-04-22 21:08 | -53.01164 | -70.84828 | 161 ft | 127 kts | 319° |
| 2026-04-22 21:08 | -53.00537 | -70.85738 | 110 ft | 93 kts | 318° |
| 2026-04-22 21:08 | -53.00317 | -70.86061 | 112 ft | 26 kts | 318° |
| 2026-04-22 21:09 | -53.00269 | -70.86021 | 113 ft | 8 kts | 81° |
| 2026-04-22 21:09 | -53.00268 | -70.85927 | 115 ft | 11 kts | 89° |
| 2026-04-22 21:09 | -53.00265 | -70.85738 | 115 ft | 17 kts | 88° |
| 2026-04-22 21:09 | -53.00263 | -70.85550 | 113 ft | 17 kts | 89° |
| 2026-04-22 21:10 | -53.00260 | -70.85271 | 115 ft | 31 kts | 88° |
| 2026-04-22 21:10 | -53.00254 | -70.84904 | 117 ft | 26 kts | 89° |
| 2026-04-22 21:10 | -53.00293 | -70.84719 | 116 ft | 14 kts | 141° |
| 2026-04-22 21:10 | -53.00371 | -70.84631 | 116 ft | 13 kts | 134° |
| 2026-04-22 21:11 | -53.00381 | -70.84492 | 114 ft | 12 kts | 88° |
| 2026-04-22 21:11 | -53.00397 | -70.84374 | 116 ft | 10 kts | 147° |
| 2026-04-22 21:11 | -53.00451 | -70.84364 | 113 ft | 1 kts | 178° |
| 2026-04-22 21:11 | -53.00455 | -70.84364 | 113 ft | 0 kts | 178° |